AAL1822 KPHX-KAUS
Flight info
| Callsign | AAL1822 |
|---|---|
| Flight time | 1h 7m |
| Altitude | 35000 |
| Route | ECLPS1 PHASE DCT EWM DCT LOWGO DCT DILLO LAIKS4 |
| Aircraft | A321/M-SDE3FGHIRWY/LB1 |
Departure
| Time | 2026-05-06 22:29 |
|---|---|
| Airport | Phoenix Sky Harbor International Airport (KPHX) |
Arrival
| Time | 2026-05-06 23:36 |
|---|---|
| Airport | Austin Bergstrom International Airport (KAUS) |
| Time | Latitude | Longitude | Altitude | Speed | Heading |
|---|---|---|---|---|---|
| 2026-05-06 22:07 | 33.43791 | -111.99878 | 1159 ft | 0 kts | 261° |
| 2026-05-06 22:18 | 33.43792 | -111.99868 | 1135 ft | 2 kts | 261° |
| 2026-05-06 22:19 | 33.43795 | -111.99848 | 1135 ft | 2 kts | 284° |
| 2026-05-06 22:19 | 33.43789 | -111.99830 | 1134 ft | 2 kts | 293° |
| 2026-05-06 22:19 | 33.43783 | -111.99815 | 1134 ft | 0 kts | 326° |
| 2026-05-06 22:21 | 33.43822 | -111.99826 | 1133 ft | 12 kts | 358° |
| 2026-05-06 22:22 | 33.43897 | -111.99787 | 1136 ft | 11 kts | 56° |
| 2026-05-06 22:22 | 33.43904 | -111.99680 | 1132 ft | 18 kts | 88° |
| 2026-05-06 22:22 | 33.43902 | -111.99439 | 1132 ft | 22 kts | 89° |
| 2026-05-06 22:22 | 33.43904 | -111.99315 | 1132 ft | 22 kts | 89° |
| 2026-05-06 22:23 | 33.43818 | -111.99240 | 1133 ft | 17 kts | 175° |
| 2026-05-06 22:23 | 33.43696 | -111.99232 | 1132 ft | 18 kts | 180° |
| 2026-05-06 22:23 | 33.43569 | -111.99232 | 1133 ft | 18 kts | 180° |
| 2026-05-06 22:23 | 33.43439 | -111.99230 | 1133 ft | 19 kts | 179° |
| 2026-05-06 22:24 | 33.43309 | -111.99230 | 1131 ft | 14 kts | 182° |
| 2026-05-06 22:24 | 33.43221 | -111.99254 | 1135 ft | 13 kts | 206° |
| 2026-05-06 22:24 | 33.43205 | -111.99269 | 1133 ft | 0 kts | 222° |
| 2026-05-06 22:26 | 33.43200 | -111.99274 | 1136 ft | 6 kts | 221° |
| 2026-05-06 22:26 | 33.43146 | -111.99331 | 1138 ft | 11 kts | 221° |
| 2026-05-06 22:26 | 33.43103 | -111.99402 | 1136 ft | 11 kts | 259° |
| 2026-05-06 22:26 | 33.43102 | -111.99435 | 1139 ft | 0 kts | 271° |
| 2026-05-06 22:28 | 33.43104 | -111.99586 | 1135 ft | 51 kts | 270° |
| 2026-05-06 22:28 | 33.43106 | -112.00299 | 1134 ft | 118 kts | 270° |
| 2026-05-06 22:28 | 33.43110 | -112.01499 | 1134 ft | 168 kts | 270° |
| 2026-05-06 22:29 | 33.43090 | -112.02982 | 1538 ft | 179 kts | 268° |
| 2026-05-06 22:29 | 33.43052 | -112.04447 | 2363 ft | 174 kts | 265° |
| 2026-05-06 22:29 | 33.42962 | -112.05890 | 3008 ft | 174 kts | 262° |
| 2026-05-06 22:29 | 33.42825 | -112.07338 | 3564 ft | 176 kts | 261° |
| 2026-05-06 22:30 | 33.42565 | -112.08747 | 4059 ft | 178 kts | 246° |
| 2026-05-06 22:30 | 33.41943 | -112.10064 | 4514 ft | 184 kts | 240° |
| 2026-05-06 22:30 | 33.41313 | -112.11488 | 4699 ft | 205 kts | 243° |
| 2026-05-06 22:30 | 33.40681 | -112.13149 | 4752 ft | 236 kts | 247° |
| 2026-05-06 22:31 | 33.40064 | -112.15106 | 5000 ft | 259 kts | 249° |
| 2026-05-06 22:31 | 33.39350 | -112.17051 | 5768 ft | 260 kts | 236° |
| 2026-05-06 22:31 | 33.38012 | -112.18497 | 6550 ft | 264 kts | 207° |
| 2026-05-06 22:31 | 33.36224 | -112.19064 | 7214 ft | 273 kts | 184° |
| 2026-05-06 22:32 | 33.34313 | -112.18676 | 7717 ft | 288 kts | 163° |
| 2026-05-06 22:32 | 33.32441 | -112.17777 | 7973 ft | 290 kts | 156° |
| 2026-05-06 22:32 | 33.30608 | -112.16740 | 8612 ft | 291 kts | 153° |
| 2026-05-06 22:32 | 33.28944 | -112.15355 | 9363 ft | 294 kts | 138° |
| 2026-05-06 22:33 | 33.27522 | -112.13583 | 10079 ft | 296 kts | 131° |
| 2026-05-06 22:33 | 33.26075 | -112.11716 | 10324 ft | 318 kts | 133° |
| 2026-05-06 22:33 | 33.24619 | -112.09607 | 10468 ft | 340 kts | 124° |
| 2026-05-06 22:33 | 33.23470 | -112.07095 | 10933 ft | 349 kts | 112° |
| 2026-05-06 22:34 | 33.22683 | -112.04332 | 11568 ft | 354 kts | 108° |
| 2026-05-06 22:34 | 33.21936 | -112.01510 | 12208 ft | 358 kts | 109° |
| 2026-05-06 22:34 | 33.21191 | -111.98655 | 12848 ft | 362 kts | 109° |
| 2026-05-06 22:34 | 33.20441 | -111.95766 | 13503 ft | 366 kts | 109° |
| 2026-05-06 22:35 | 33.19679 | -111.92847 | 14107 ft | 369 kts | 109° |
| 2026-05-06 22:35 | 33.18909 | -111.89910 | 14689 ft | 373 kts | 109° |
| 2026-05-06 22:35 | 33.18129 | -111.86937 | 15272 ft | 376 kts | 109° |
| 2026-05-06 22:35 | 33.17343 | -111.83943 | 15847 ft | 380 kts | 109° |
| 2026-05-06 22:36 | 33.16547 | -111.80920 | 16413 ft | 384 kts | 109° |
| 2026-05-06 22:36 | 33.15741 | -111.77867 | 16958 ft | 388 kts | 110° |
| 2026-05-06 22:36 | 33.14924 | -111.74777 | 17508 ft | 392 kts | 110° |
| 2026-05-06 22:36 | 33.14100 | -111.71660 | 18050 ft | 396 kts | 110° |
| 2026-05-06 22:37 | 33.13267 | -111.68506 | 18551 ft | 401 kts | 110° |
| 2026-05-06 22:37 | 33.12423 | -111.65316 | 19006 ft | 406 kts | 111° |
| 2026-05-06 22:37 | 33.11567 | -111.62091 | 19445 ft | 410 kts | 111° |
| 2026-05-06 22:37 | 33.10698 | -111.58817 | 19891 ft | 415 kts | 111° |
| 2026-05-06 22:38 | 33.09833 | -111.55564 | 20322 ft | 420 kts | 111° |
| 2026-05-06 22:38 | 33.08944 | -111.52227 | 20770 ft | 425 kts | 112° |
| 2026-05-06 22:38 | 33.08042 | -111.48848 | 21217 ft | 429 kts | 112° |
| 2026-05-06 22:38 | 33.07028 | -111.45497 | 21652 ft | 429 kts | 120° |
| 2026-05-06 22:39 | 33.05602 | -111.42387 | 22082 ft | 426 kts | 129° |
| 2026-05-06 22:39 | 33.03444 | -111.38466 | 22658 ft | 431 kts | 130° |
| 2026-05-06 22:39 | 33.00126 | -111.32441 | 23505 ft | 439 kts | 130° |
| 2026-05-06 22:39 | 32.96755 | -111.26307 | 24209 ft | 445 kts | 131° |
| 2026-05-06 22:40 | 32.93342 | -111.20095 | 24923 ft | 451 kts | 131° |
| 2026-05-06 22:40 | 32.89892 | -111.13801 | 25622 ft | 456 kts | 132° |
| 2026-05-06 22:40 | 32.86391 | -111.07447 | 26318 ft | 461 kts | 133° |
| 2026-05-06 22:40 | 32.82846 | -111.01041 | 26980 ft | 466 kts | 133° |
| 2026-05-06 22:41 | 32.75626 | -110.88016 | 28250 ft | 476 kts | 134° |
| 2026-05-06 22:41 | 32.71953 | -110.81415 | 28848 ft | 481 kts | 134° |
| 2026-05-06 22:41 | 32.68248 | -110.74757 | 29407 ft | 486 kts | 134° |
| 2026-05-06 22:42 | 32.64717 | -110.67819 | 29904 ft | 506 kts | 124° |
| 2026-05-06 22:42 | 32.62623 | -110.59628 | 30351 ft | 526 kts | 113° |
| 2026-05-06 22:42 | 32.60793 | -110.51217 | 30840 ft | 528 kts | 114° |
| 2026-05-06 22:42 | 32.58918 | -110.42802 | 31540 ft | 527 kts | 115° |
| 2026-05-06 22:43 | 32.57039 | -110.34399 | 32238 ft | 527 kts | 115° |
| 2026-05-06 22:43 | 32.55184 | -110.26096 | 32845 ft | 527 kts | 115° |
| 2026-05-06 22:43 | 32.53309 | -110.17713 | 33469 ft | 526 kts | 115° |
| 2026-05-06 22:43 | 32.51425 | -110.09314 | 34055 ft | 526 kts | 116° |
| 2026-05-06 22:44 | 32.49542 | -110.00946 | 34571 ft | 525 kts | 116° |
| 2026-05-06 22:44 | 32.47655 | -109.92587 | 34951 ft | 525 kts | 116° |
| 2026-05-06 22:44 | 32.45778 | -109.84273 | 34942 ft | 521 kts | 116° |
| 2026-05-06 22:45 | 32.42749 | -109.67373 | 34922 ft | 532 kts | 108° |
| 2026-05-06 22:45 | 32.40563 | -109.50082 | 34920 ft | 532 kts | 109° |
| 2026-05-06 22:46 | 32.38336 | -109.32787 | 34931 ft | 532 kts | 109° |
| 2026-05-06 22:46 | 32.37400 | -109.25599 | 34939 ft | 534 kts | 109° |
| 2026-05-06 22:47 | 32.33807 | -108.97933 | 34983 ft | 533 kts | 109° |
| 2026-05-06 22:48 | 32.29206 | -108.63289 | 35069 ft | 533 kts | 109° |
| 2026-05-06 22:48 | 32.24506 | -108.28649 | 34925 ft | 535 kts | 110° |
| 2026-05-06 22:49 | 32.19690 | -107.93975 | 35016 ft | 534 kts | 110° |
| 2026-05-06 22:49 | 32.14801 | -107.59472 | 35039 ft | 531 kts | 110° |
| 2026-05-06 22:49 | 32.12340 | -107.42305 | 34934 ft | 530 kts | 110° |
| 2026-05-06 22:50 | 32.09861 | -107.25226 | 34879 ft | 529 kts | 110° |
| 2026-05-06 22:50 | 32.04846 | -106.91111 | 34947 ft | 532 kts | 111° |
| 2026-05-06 22:51 | 31.99662 | -106.56644 | 35000 ft | 535 kts | 111° |
| 2026-05-06 22:51 | 31.94464 | -106.22072 | 34950 ft | 539 kts | 108° |
| 2026-05-06 22:52 | 31.90901 | -105.86770 | 34860 ft | 543 kts | 107° |
| 2026-05-06 22:52 | 31.87032 | -105.51467 | 34851 ft | 544 kts | 107° |
| 2026-05-06 22:53 | 31.83057 | -105.16180 | 34845 ft | 544 kts | 107° |
| 2026-05-06 22:53 | 31.79030 | -104.81000 | 34550 ft | 533 kts | 107° |
| 2026-05-06 22:53 | 31.77097 | -104.64361 | 34836 ft | 513 kts | 108° |
| 2026-05-06 22:54 | 31.75035 | -104.47372 | 34784 ft | 529 kts | 107° |
| 2026-05-06 22:54 | 31.70939 | -104.13216 | 34908 ft | 528 kts | 108° |
| 2026-05-06 22:55 | 31.69813 | -104.04043 | 34773 ft | 528 kts | 108° |
| 2026-05-06 22:55 | 31.68770 | -103.95470 | 34835 ft | 532 kts | 108° |
| 2026-05-06 22:56 | 31.67701 | -103.86857 | 34838 ft | 533 kts | 108° |
| 2026-05-06 22:56 | 31.66075 | -103.73876 | 34844 ft | 534 kts | 108° |
| 2026-05-06 22:57 | 31.63907 | -103.56593 | 34876 ft | 535 kts | 108° |
| 2026-05-06 22:57 | 31.61737 | -103.39419 | 34883 ft | 537 kts | 108° |
| 2026-05-06 22:58 | 31.59492 | -103.22079 | 34858 ft | 537 kts | 108° |
| 2026-05-06 22:58 | 31.57235 | -103.04727 | 34854 ft | 538 kts | 108° |
| 2026-05-06 22:59 | 31.54959 | -102.87398 | 34857 ft | 537 kts | 108° |
| 2026-05-06 22:59 | 31.52656 | -102.70111 | 34866 ft | 536 kts | 108° |
| 2026-05-06 23:00 | 31.50337 | -102.52861 | 34864 ft | 535 kts | 108° |
| 2026-05-06 23:00 | 31.48009 | -102.35677 | 34860 ft | 534 kts | 108° |
| 2026-05-06 23:01 | 31.45662 | -102.18510 | 34866 ft | 533 kts | 108° |
| 2026-05-06 23:01 | 31.43277 | -102.01425 | 34870 ft | 530 kts | 109° |
| 2026-05-06 23:02 | 31.40233 | -101.84653 | 34893 ft | 524 kts | 113° |
| 2026-05-06 23:02 | 31.37071 | -101.68103 | 34901 ft | 524 kts | 111° |
| 2026-05-06 23:03 | 31.34199 | -101.52538 | 34915 ft | 523 kts | 112° |
| 2026-05-06 23:03 | 31.31068 | -101.35929 | 34917 ft | 523 kts | 112° |
| 2026-05-06 23:04 | 31.27886 | -101.19189 | 34884 ft | 534 kts | 110° |
| 2026-05-06 23:04 | 31.24635 | -101.02187 | 34943 ft | 538 kts | 110° |
| 2026-05-06 23:05 | 31.21354 | -100.85151 | 34951 ft | 537 kts | 110° |
| 2026-05-06 23:05 | 31.19317 | -100.74623 | 35159 ft | 529 kts | 110° |
| 2026-05-06 23:06 | 31.17676 | -100.66176 | 35194 ft | 535 kts | 111° |
| 2026-05-06 23:06 | 31.16015 | -100.57694 | 35233 ft | 536 kts | 111° |
| 2026-05-06 23:07 | 31.14635 | -100.50638 | 35276 ft | 537 kts | 111° |
| 2026-05-06 23:07 | 31.12700 | -100.40774 | 35323 ft | 536 kts | 111° |
| 2026-05-06 23:08 | 31.11020 | -100.32297 | 35357 ft | 536 kts | 111° |
| 2026-05-06 23:08 | 31.09338 | -100.23807 | 35394 ft | 537 kts | 110° |
| 2026-05-06 23:09 | 31.07942 | -100.16754 | 35394 ft | 537 kts | 110° |
| 2026-05-06 23:09 | 31.06254 | -100.08277 | 35384 ft | 537 kts | 111° |
| 2026-05-06 23:10 | 31.04553 | -99.99803 | 35382 ft | 537 kts | 111° |
| 2026-05-06 23:10 | 31.02843 | -99.91333 | 35375 ft | 537 kts | 111° |
| 2026-05-06 23:11 | 31.01130 | -99.82850 | 35366 ft | 536 kts | 110° |
| 2026-05-06 23:11 | 30.99422 | -99.74377 | 34920 ft | 539 kts | 111° |
| 2026-05-06 23:11 | 30.98552 | -99.70099 | 34248 ft | 543 kts | 111° |
| 2026-05-06 23:12 | 30.97695 | -99.65860 | 34129 ft | 532 kts | 111° |
| 2026-05-06 23:12 | 30.96867 | -99.61752 | 33819 ft | 526 kts | 111° |
| 2026-05-06 23:12 | 30.96010 | -99.57546 | 33161 ft | 527 kts | 111° |
| 2026-05-06 23:12 | 30.95158 | -99.53408 | 32598 ft | 526 kts | 111° |
| 2026-05-06 23:13 | 30.94314 | -99.49320 | 32015 ft | 525 kts | 111° |
| 2026-05-06 23:13 | 30.93459 | -99.45181 | 31420 ft | 525 kts | 111° |
| 2026-05-06 23:13 | 30.92606 | -99.41052 | 30826 ft | 525 kts | 110° |
| 2026-05-06 23:13 | 30.91757 | -99.36922 | 30237 ft | 525 kts | 110° |
| 2026-05-06 23:14 | 30.90908 | -99.32783 | 29597 ft | 524 kts | 110° |
| 2026-05-06 23:14 | 30.90066 | -99.28682 | 29113 ft | 518 kts | 110° |
| 2026-05-06 23:14 | 30.89229 | -99.24615 | 28492 ft | 515 kts | 110° |
| 2026-05-06 23:14 | 30.88401 | -99.20589 | 28034 ft | 509 kts | 110° |
| 2026-05-06 23:15 | 30.87572 | -99.16588 | 27493 ft | 506 kts | 110° |
| 2026-05-06 23:15 | 30.86751 | -99.12634 | 27062 ft | 499 kts | 110° |
| 2026-05-06 23:15 | 30.85934 | -99.08717 | 26548 ft | 495 kts | 110° |
| 2026-05-06 23:15 | 30.85124 | -99.04847 | 25977 ft | 490 kts | 109° |
| 2026-05-06 23:16 | 30.84322 | -99.01014 | 25429 ft | 485 kts | 109° |
| 2026-05-06 23:16 | 30.83527 | -98.97216 | 24873 ft | 480 kts | 109° |
| 2026-05-06 23:16 | 30.82740 | -98.93464 | 24444 ft | 474 kts | 109° |
| 2026-05-06 23:16 | 30.81960 | -98.89753 | 23921 ft | 470 kts | 109° |
| 2026-05-06 23:17 | 30.81186 | -98.86076 | 23407 ft | 466 kts | 109° |
| 2026-05-06 23:17 | 30.80421 | -98.82431 | 22928 ft | 460 kts | 109° |
| 2026-05-06 23:17 | 30.79667 | -98.78825 | 22364 ft | 458 kts | 109° |
| 2026-05-06 23:17 | 30.78898 | -98.75267 | 22050 ft | 451 kts | 109° |
| 2026-05-06 23:18 | 30.78097 | -98.71758 | 21533 ft | 445 kts | 110° |
| 2026-05-06 23:18 | 30.77282 | -98.68310 | 21020 ft | 440 kts | 110° |
| 2026-05-06 23:18 | 30.76464 | -98.64899 | 20564 ft | 434 kts | 111° |
| 2026-05-06 23:18 | 30.75659 | -98.61545 | 20135 ft | 428 kts | 110° |
| 2026-05-06 23:19 | 30.74866 | -98.58218 | 19698 ft | 425 kts | 110° |
| 2026-05-06 23:19 | 30.74088 | -98.54915 | 19261 ft | 422 kts | 110° |
| 2026-05-06 23:19 | 30.73331 | -98.51667 | 18818 ft | 420 kts | 110° |
| 2026-05-06 23:19 | 30.72573 | -98.48407 | 18410 ft | 416 kts | 110° |
| 2026-05-06 23:20 | 30.71822 | -98.45181 | 17963 ft | 412 kts | 110° |
| 2026-05-06 23:20 | 30.71078 | -98.41989 | 17520 ft | 407 kts | 110° |
| 2026-05-06 23:20 | 30.70335 | -98.38824 | 17104 ft | 403 kts | 110° |
| 2026-05-06 23:20 | 30.69602 | -98.35702 | 16689 ft | 399 kts | 110° |
| 2026-05-06 23:21 | 30.68873 | -98.32604 | 16262 ft | 395 kts | 110° |
| 2026-05-06 23:21 | 30.68150 | -98.29543 | 15842 ft | 391 kts | 110° |
| 2026-05-06 23:21 | 30.67433 | -98.26510 | 15427 ft | 388 kts | 110° |
| 2026-05-06 23:21 | 30.66718 | -98.23496 | 15003 ft | 385 kts | 110° |
| 2026-05-06 23:22 | 30.66011 | -98.20509 | 14589 ft | 382 kts | 110° |
| 2026-05-06 23:22 | 30.65313 | -98.17560 | 14191 ft | 373 kts | 110° |
| 2026-05-06 23:22 | 30.64610 | -98.14717 | 14064 ft | 358 kts | 115° |
| 2026-05-06 23:22 | 30.63648 | -98.12112 | 13836 ft | 348 kts | 121° |
| 2026-05-06 23:23 | 30.62636 | -98.09568 | 13439 ft | 346 kts | 121° |
| 2026-05-06 23:23 | 30.61631 | -98.07045 | 13048 ft | 344 kts | 120° |
| 2026-05-06 23:23 | 30.60632 | -98.04534 | 12735 ft | 340 kts | 120° |
| 2026-05-06 23:23 | 30.59642 | -98.02044 | 12321 ft | 339 kts | 120° |
| 2026-05-06 23:24 | 30.58659 | -97.99576 | 12005 ft | 335 kts | 119° |
| 2026-05-06 23:24 | 30.57678 | -97.97123 | 11618 ft | 333 kts | 120° |
| 2026-05-06 23:24 | 30.56505 | -97.94842 | 11244 ft | 326 kts | 133° |
| 2026-05-06 23:24 | 30.54972 | -97.93001 | 10917 ft | 317 kts | 147° |
| 2026-05-06 23:25 | 30.53172 | -97.91634 | 10729 ft | 305 kts | 159° |
| 2026-05-06 23:25 | 30.51266 | -97.90560 | 10540 ft | 304 kts | 159° |
| 2026-05-06 23:25 | 30.49370 | -97.89489 | 10341 ft | 303 kts | 159° |
| 2026-05-06 23:25 | 30.47468 | -97.88411 | 10135 ft | 303 kts | 159° |
| 2026-05-06 23:26 | 30.45577 | -97.87338 | 9883 ft | 304 kts | 159° |
| 2026-05-06 23:26 | 30.43668 | -97.86256 | 9407 ft | 306 kts | 158° |
| 2026-05-06 23:26 | 30.41768 | -97.85177 | 9009 ft | 305 kts | 158° |
| 2026-05-06 23:26 | 30.39874 | -97.84102 | 8719 ft | 301 kts | 158° |
| 2026-05-06 23:27 | 30.37994 | -97.83037 | 8337 ft | 300 kts | 157° |
| 2026-05-06 23:27 | 30.36119 | -97.81978 | 7981 ft | 299 kts | 157° |
| 2026-05-06 23:27 | 30.34258 | -97.80928 | 7545 ft | 296 kts | 157° |
| 2026-05-06 23:27 | 30.32401 | -97.79882 | 6933 ft | 295 kts | 156° |
| 2026-05-06 23:28 | 30.30610 | -97.78869 | 6823 ft | 279 kts | 156° |
| 2026-05-06 23:28 | 30.28915 | -97.77910 | 6732 ft | 263 kts | 158° |
| 2026-05-06 23:28 | 30.27242 | -97.77263 | 6596 ft | 246 kts | 173° |
| 2026-05-06 23:28 | 30.25570 | -97.77121 | 6315 ft | 238 kts | 182° |
| 2026-05-06 23:29 | 30.23927 | -97.77088 | 6029 ft | 234 kts | 182° |
| 2026-05-06 23:29 | 30.22321 | -97.77046 | 5786 ft | 226 kts | 182° |
| 2026-05-06 23:29 | 30.20791 | -97.77002 | 5533 ft | 214 kts | 182° |
| 2026-05-06 23:29 | 30.19356 | -97.76961 | 5282 ft | 197 kts | 182° |
| 2026-05-06 23:30 | 30.18055 | -97.76924 | 5093 ft | 181 kts | 182° |
| 2026-05-06 23:30 | 30.16834 | -97.76879 | 4922 ft | 173 kts | 180° |
| 2026-05-06 23:30 | 30.15628 | -97.76783 | 4565 ft | 173 kts | 176° |
| 2026-05-06 23:30 | 30.14444 | -97.76682 | 4406 ft | 171 kts | 181° |
| 2026-05-06 23:31 | 30.13263 | -97.76785 | 4142 ft | 166 kts | 189° |
| 2026-05-06 23:31 | 30.12148 | -97.76885 | 3922 ft | 161 kts | 182° |
| 2026-05-06 23:31 | 30.11044 | -97.76800 | 3611 ft | 158 kts | 163° |
| 2026-05-06 23:31 | 30.10085 | -97.76173 | 3449 ft | 162 kts | 134° |
| 2026-05-06 23:32 | 30.09437 | -97.75127 | 3263 ft | 160 kts | 115° |
| 2026-05-06 23:32 | 30.08995 | -97.73958 | 3059 ft | 160 kts | 111° |
| 2026-05-06 23:32 | 30.08542 | -97.72799 | 2848 ft | 156 kts | 104° |
| 2026-05-06 23:32 | 30.08395 | -97.71604 | 2677 ft | 146 kts | 73° |
| 2026-05-06 23:33 | 30.08818 | -97.70591 | 2555 ft | 140 kts | 51° |
| 2026-05-06 23:33 | 30.09323 | -97.69620 | 2273 ft | 143 kts | 54° |
| 2026-05-06 23:33 | 30.09795 | -97.68627 | 2142 ft | 138 kts | 49° |
| 2026-05-06 23:33 | 30.10463 | -97.67867 | 1897 ft | 133 kts | 27° |
| 2026-05-06 23:34 | 30.11327 | -97.67566 | 1744 ft | 132 kts | 1° |
| 2026-05-06 23:34 | 30.12246 | -97.67639 | 1575 ft | 132 kts | 356° |
| 2026-05-06 23:34 | 30.13174 | -97.67686 | 1393 ft | 134 kts | 1° |
| 2026-05-06 23:34 | 30.14096 | -97.67728 | 1268 ft | 132 kts | 359° |
| 2026-05-06 23:35 | 30.15015 | -97.67763 | 1113 ft | 137 kts | 0° |
| 2026-05-06 23:35 | 30.15944 | -97.67788 | 1000 ft | 132 kts | 359° |
| 2026-05-06 23:35 | 30.16901 | -97.67819 | 791 ft | 132 kts | 360° |
| 2026-05-06 23:35 | 30.17818 | -97.67847 | 587 ft | 133 kts | 0° |
| 2026-05-06 23:36 | 30.18707 | -97.67868 | 509 ft | 114 kts | 359° |
| 2026-05-06 23:36 | 30.19348 | -97.67883 | 520 ft | 67 kts | 359° |
| 2026-05-06 23:36 | 30.19657 | -97.67888 | 521 ft | 30 kts | 359° |
| 2026-05-06 23:36 | 30.19841 | -97.67852 | 523 ft | 24 kts | 31° |
| 2026-05-06 23:37 | 30.19883 | -97.67719 | 522 ft | 17 kts | 94° |
| 2026-05-06 23:37 | 30.19888 | -97.67589 | 521 ft | 16 kts | 85° |
| 2026-05-06 23:37 | 30.19892 | -97.67445 | 519 ft | 20 kts | 88° |
| 2026-05-06 23:37 | 30.19947 | -97.67340 | 520 ft | 15 kts | 10° |
| 2026-05-06 23:38 | 30.20067 | -97.67319 | 523 ft | 17 kts | 33° |
| 2026-05-06 23:38 | 30.20094 | -97.67189 | 521 ft | 18 kts | 88° |
| 2026-05-06 23:38 | 30.20098 | -97.67032 | 519 ft | 21 kts | 89° |
| 2026-05-06 23:38 | 30.20089 | -97.66859 | 516 ft | 23 kts | 108° |
| 2026-05-06 23:39 | 30.20094 | -97.66728 | 514 ft | 13 kts | 28° |
| 2026-05-06 23:39 | 30.20126 | -97.66720 | 514 ft | 0 kts | 7° |